sensor_id;sensor_type;location;lat;lon;timestamp;temperature;humidity
27439;DHT22;14887;51.252;7.470;2023-03-16T00:00:50;0.40;1.00
27439;DHT22;14887;51.252;7.470;2023-03-16T00:03:16;0.40;1.00
27439;DHT22;14887;51.252;7.470;2023-03-16T00:05:47;0.50;99.90
27439;DHT22;14887;51.252;7.470;2023-03-16T00:08:14;0.60;99.90
27439;DHT22;14887;51.252;7.470;2023-03-16T00:10:40;0.60;99.90
27439;DHT22;14887;51.252;7.470;2023-03-16T00:13:17;0.50;99.90
27439;DHT22;14887;51.252;7.470;2023-03-16T00:15:51;0.50;99.90
27439;DHT22;14887;51.252;7.470;2023-03-16T00:18:17;0.50;1.00
27439;DHT22;14887;51.252;7.470;2023-03-16T00:20:42;0.50;1.00
27439;DHT22;14887;51.252;7.470;2023-03-16T00:23:08;0.40;99.90
27439;DHT22;14887;51.252;7.470;2023-03-16T00:25:33;0.50;99.90
27439;DHT22;14887;51.252;7.470;2023-03-16T00:27:59;0.40;1.00
27439;DHT22;14887;51.252;7.470;2023-03-16T00:30:29;0.40;99.90
27439;DHT22;14887;51.252;7.470;2023-03-16T00:32:55;0.40;99.90
27439;DHT22;14887;51.252;7.470;2023-03-16T00:35:21;0.30;1.00
27439;DHT22;14887;51.252;7.470;2023-03-16T00:37:46;0.30;1.00
27439;DHT22;14887;51.252;7.470;2023-03-16T00:40:12;0.30;1.00
27439;DHT22;14887;51.252;7.470;2023-03-16T00:42:38;0.40;99.90
27439;DHT22;14887;51.252;7.470;2023-03-16T00:45:04;0.30;99.90
27439;DHT22;14887;51.252;7.470;2023-03-16T00:47:32;0.40;99.90
27439;DHT22;14887;51.252;7.470;2023-03-16T00:49:59;0.30;99.90
27439;DHT22;14887;51.252;7.470;2023-03-16T00:52:26;0.30;99.90
27439;DHT22;14887;51.252;7.470;2023-03-16T00:54:53;0.30;99.90
27439;DHT22;14887;51.252;7.470;2023-03-16T00:57:20;0.30;1.00
27439;DHT22;14887;51.252;7.470;2023-03-16T00:59:47;0.30;99.90
27439;DHT22;14887;51.252;7.470;2023-03-16T01:02:14;0.30;99.90
27439;DHT22;14887;51.252;7.470;2023-03-16T01:04:40;0.40;99.90
27439;DHT22;14887;51.252;7.470;2023-03-16T01:07:07;0.40;99.90
27439;DHT22;14887;51.252;7.470;2023-03-16T01:09:34;0.40;99.90
27439;DHT22;14887;51.252;7.470;2023-03-16T01:12:15;0.40;99.90
27439;DHT22;14887;51.252;7.470;2023-03-16T01:14:42;0.40;99.90
27439;DHT22;14887;51.252;7.470;2023-03-16T01:17:10;0.40;99.90
27439;DHT22;14887;51.252;7.470;2023-03-16T01:19:38;0.40;99.90
27439;DHT22;14887;51.252;7.470;2023-03-16T01:22:05;0.40;99.90
27439;DHT22;14887;51.252;7.470;2023-03-16T01:24:32;0.50;99.90
27439;DHT22;14887;51.252;7.470;2023-03-16T01:26:59;0.50;99.90
27439;DHT22;14887;51.252;7.470;2023-03-16T01:29:24;0.60;29.30
27439;DHT22;14887;51.252;7.470;2023-03-16T01:31:50;0.50;99.90
27439;DHT22;14887;51.252;7.470;2023-03-16T01:34:15;0.50;99.90
27439;DHT22;14887;51.252;7.470;2023-03-16T01:36:43;0.50;1.00
27439;DHT22;14887;51.252;7.470;2023-03-16T01:39:11;0.50;1.00
27439;DHT22;14887;51.252;7.470;2023-03-16T01:41:38;0.50;1.00
27439;DHT22;14887;51.252;7.470;2023-03-16T01:44:04;0.50;1.00
27439;DHT22;14887;51.252;7.470;2023-03-16T01:46:30;0.60;1.00
27439;DHT22;14887;51.252;7.470;2023-03-16T01:49:09;0.60;1.00
27439;DHT22;14887;51.252;7.470;2023-03-16T01:51:45;0.60;1.00
27439;DHT22;14887;51.252;7.470;2023-03-16T01:54:25;0.70;99.90
27439;DHT22;14887;51.252;7.470;2023-03-16T01:57:00;0.70;99.90
27439;DHT22;14887;51.252;7.470;2023-03-16T01:59:32;0.60;1.00
27439;DHT22;14887;51.252;7.470;2023-03-16T02:02:00;0.60;99.90
27439;DHT22;14887;51.252;7.470;2023-03-16T02:04:49;0.60;1.00
27439;DHT22;14887;51.252;7.470;2023-03-16T02:07:19;0.50;1.00
27439;DHT22;14887;51.252;7.470;2023-03-16T02:09:47;0.50;99.90
27439;DHT22;14887;51.252;7.470;2023-03-16T02:12:15;0.50;99.90
27439;DHT22;14887;51.252;7.470;2023-03-16T02:14:48;0.50;99.90
27439;DHT22;14887;51.252;7.470;2023-03-16T02:17:17;0.50;99.90
27439;DHT22;14887;51.252;7.470;2023-03-16T02:22:49;0.40;1.00
27439;DHT22;14887;51.252;7.470;2023-03-16T02:25:21;0.40;99.90
27439;DHT22;14887;51.252;7.470;2023-03-16T02:30:49;0.40;99.90
27439;DHT22;14887;51.252;7.470;2023-03-16T02:33:16;0.40;99.90
27439;DHT22;14887;51.252;7.470;2023-03-16T02:35:43;0.40;96.60
27439;DHT22;14887;51.252;7.470;2023-03-16T02:38:08;0.40;95.10
27439;DHT22;14887;51.252;7.470;2023-03-16T02:40:35;0.50;99.90
27439;DHT22;14887;51.252;7.470;2023-03-16T02:43:01;0.40;1.00
27439;DHT22;14887;51.252;7.470;2023-03-16T02:45:35;0.40;99.90
27439;DHT22;14887;51.252;7.470;2023-03-16T02:48:06;0.50;99.80
27439;DHT22;14887;51.252;7.470;2023-03-16T02:50:33;0.50;99.90
27439;DHT22;14887;51.252;7.470;2023-03-16T02:52:59;0.60;48.50
27439;DHT22;14887;51.252;7.470;2023-03-16T02:55:24;0.60;99.90
27439;DHT22;14887;51.252;7.470;2023-03-16T02:57:50;0.60;1.00
27439;DHT22;14887;51.252;7.470;2023-03-16T03:00:17;0.60;1.00
27439;DHT22;14887;51.252;7.470;2023-03-16T03:02:44;0.50;1.00
27439;DHT22;14887;51.252;7.470;2023-03-16T03:05:11;0.60;99.90
27439;DHT22;14887;51.252;7.470;2023-03-16T03:07:37;0.50;99.90
27439;DHT22;14887;51.252;7.470;2023-03-16T03:10:04;0.60;36.10
27439;DHT22;14887;51.252;7.470;2023-03-16T03:12:31;0.70;1.00
27439;DHT22;14887;51.252;7.470;2023-03-16T03:14:57;0.70;99.90
27439;DHT22;14887;51.252;7.470;2023-03-16T03:17:23;0.70;1.00
27439;DHT22;14887;51.252;7.470;2023-03-16T03:19:56;0.70;1.00
27439;DHT22;14887;51.252;7.470;2023-03-16T03:22:22;0.70;1.00
27439;DHT22;14887;51.252;7.470;2023-03-16T03:24:47;0.70;1.00
27439;DHT22;14887;51.252;7.470;2023-03-16T03:27:13;0.70;99.90
27439;DHT22;14887;51.252;7.470;2023-03-16T03:29:39;0.70;95.10
27439;DHT22;14887;51.252;7.470;2023-03-16T03:32:04;0.60;44.20
27439;DHT22;14887;51.252;7.470;2023-03-16T03:34:31;0.70;99.90
27439;DHT22;14887;51.252;7.470;2023-03-16T03:36:57;0.60;99.90
27439;DHT22;14887;51.252;7.470;2023-03-16T03:39:23;0.60;99.90
27439;DHT22;14887;51.252;7.470;2023-03-16T03:41:49;0.60;99.90
27439;DHT22;14887;51.252;7.470;2023-03-16T03:44:21;0.70;1.00
27439;DHT22;14887;51.252;7.470;2023-03-16T03:46:47;0.70;1.00
27439;DHT22;14887;51.252;7.470;2023-03-16T03:49:14;0.60;1.00
27439;DHT22;14887;51.252;7.470;2023-03-16T03:51:40;0.60;99.90
27439;DHT22;14887;51.252;7.470;2023-03-16T03:54:06;0.60;18.50
27439;DHT22;14887;51.252;7.470;2023-03-16T03:56:32;0.70;99.90
27439;DHT22;14887;51.252;7.470;2023-03-16T03:58:58;0.70;1.00
27439;DHT22;14887;51.252;7.470;2023-03-16T04:01:23;0.70;99.90
27439;DHT22;14887;51.252;7.470;2023-03-16T04:03:49;0.70;1.00
27439;DHT22;14887;51.252;7.470;2023-03-16T04:06:15;0.70;1.00
27439;DHT22;14887;51.252;7.470;2023-03-16T04:08:41;0.70;39.90
27439;DHT22;14887;51.252;7.470;2023-03-16T04:11:06;0.70;1.00
27439;DHT22;14887;51.252;7.470;2023-03-16T04:13:32;0.70;1.00
27439;DHT22;14887;51.252;7.470;2023-03-16T04:15:59;0.70;1.00
27439;DHT22;14887;51.252;7.470;2023-03-16T04:18:27;0.70;82.50
27439;DHT22;14887;51.252;7.470;2023-03-16T04:20:53;0.70;1.00
27439;DHT22;14887;51.252;7.470;2023-03-16T04:23:19;0.70;79.20
27439;DHT22;14887;51.252;7.470;2023-03-16T04:25:45;0.70;99.90
27439;DHT22;14887;51.252;7.470;2023-03-16T04:28:11;0.70;99.90
27439;DHT22;14887;51.252;7.470;2023-03-16T04:30:37;0.70;99.90
27439;DHT22;14887;51.252;7.470;2023-03-16T04:33:03;0.70;99.90
27439;DHT22;14887;51.252;7.470;2023-03-16T04:35:28;0.70;1.00
27439;DHT22;14887;51.252;7.470;2023-03-16T04:37:54;0.60;99.90
27439;DHT22;14887;51.252;7.470;2023-03-16T04:40:20;0.70;99.90
27439;DHT22;14887;51.252;7.470;2023-03-16T04:42:46;0.70;1.00
27439;DHT22;14887;51.252;7.470;2023-03-16T04:45:13;0.60;1.00
27439;DHT22;14887;51.252;7.470;2023-03-16T04:47:39;0.60;1.00
27439;DHT22;14887;51.252;7.470;2023-03-16T04:50:05;0.60;1.00
27439;DHT22;14887;51.252;7.470;2023-03-16T04:52:32;0.60;1.00
27439;DHT22;14887;51.252;7.470;2023-03-16T04:54:58;0.60;1.00
27439;DHT22;14887;51.252;7.470;2023-03-16T04:57:23;0.50;99.90
27439;DHT22;14887;51.252;7.470;2023-03-16T04:59:49;0.60;99.90
27439;DHT22;14887;51.252;7.470;2023-03-16T05:02:15;0.50;27.20
27439;DHT22;14887;51.252;7.470;2023-03-16T05:04:42;0.50;92.70
27439;DHT22;14887;51.252;7.470;2023-03-16T05:07:07;0.50;38.00
27439;DHT22;14887;51.252;7.470;2023-03-16T05:09:33;0.60;12.00
27439;DHT22;14887;51.252;7.470;2023-03-16T05:11:58;0.50;99.90
27439;DHT22;14887;51.252;7.470;2023-03-16T05:14:24;0.60;16.30
27439;DHT22;14887;51.252;7.470;2023-03-16T05:16:50;0.60;99.90
27439;DHT22;14887;51.252;7.470;2023-03-16T05:19:16;0.60;95.10
27439;DHT22;14887;51.252;7.470;2023-03-16T05:21:42;0.60;1.00
27439;DHT22;14887;51.252;7.470;2023-03-16T05:24:07;0.60;1.00
27439;DHT22;14887;51.252;7.470;2023-03-16T05:26:33;0.60;52.50
27439;DHT22;14887;51.252;7.470;2023-03-16T05:29:00;0.70;1.00
27439;DHT22;14887;51.252;7.470;2023-03-16T05:31:26;0.70;1.00
27439;DHT22;14887;51.252;7.470;2023-03-16T05:33:52;0.70;1.00
27439;DHT22;14887;51.252;7.470;2023-03-16T05:36:18;0.70;92.20
27439;DHT22;14887;51.252;7.470;2023-03-16T05:38:44;0.70;93.00
27439;DHT22;14887;51.252;7.470;2023-03-16T05:41:10;0.70;99.90
27439;DHT22;14887;51.252;7.470;2023-03-16T05:43:37;0.70;79.60
27439;DHT22;14887;51.252;7.470;2023-03-16T05:46:03;0.80;1.00
27439;DHT22;14887;51.252;7.470;2023-03-16T05:48:28;0.80;11.50
27439;DHT22;14887;51.252;7.470;2023-03-16T05:50:54;0.90;1.00
27439;DHT22;14887;51.252;7.470;2023-03-16T05:53:20;0.90;1.00
27439;DHT22;14887;51.252;7.470;2023-03-16T05:55:51;0.90;1.00
27439;DHT22;14887;51.252;7.470;2023-03-16T05:58:17;0.90;1.00
27439;DHT22;14887;51.252;7.470;2023-03-16T06:00:42;0.90;3.30
27439;DHT22;14887;51.252;7.470;2023-03-16T06:03:08;1.00;1.00
27439;DHT22;14887;51.252;7.470;2023-03-16T06:05:34;1.00;1.00
27439;DHT22;14887;51.252;7.470;2023-03-16T06:07:59;1.10;1.00
27439;DHT22;14887;51.252;7.470;2023-03-16T06:10:25;1.10;2.40
27439;DHT22;14887;51.252;7.470;2023-03-16T06:12:52;1.10;1.00
27439;DHT22;14887;51.252;7.470;2023-03-16T06:15:17;1.20;1.00
27439;DHT22;14887;51.252;7.470;2023-03-16T06:17:43;1.20;1.00
27439;DHT22;14887;51.252;7.470;2023-03-16T06:20:10;1.30;1.00
27439;DHT22;14887;51.252;7.470;2023-03-16T06:22:41;1.30;99.90
27439;DHT22;14887;51.252;7.470;2023-03-16T06:25:08;1.40;99.90
27439;DHT22;14887;51.252;7.470;2023-03-16T06:27:34;1.40;99.90
27439;DHT22;14887;51.252;7.470;2023-03-16T06:30:00;1.50;99.90
27439;DHT22;14887;51.252;7.470;2023-03-16T06:32:25;1.40;1.00
27439;DHT22;14887;51.252;7.470;2023-03-16T06:34:51;1.40;99.90
27439;DHT22;14887;51.252;7.470;2023-03-16T06:37:17;1.40;99.90
27439;DHT22;14887;51.252;7.470;2023-03-16T06:39:42;1.50;99.90
27439;DHT22;14887;51.252;7.470;2023-03-16T06:42:09;1.50;99.90
27439;DHT22;14887;51.252;7.470;2023-03-16T06:44:35;1.50;99.90
27439;DHT22;14887;51.252;7.470;2023-03-16T06:47:01;1.60;1.00
27439;DHT22;14887;51.252;7.470;2023-03-16T06:49:28;1.70;99.90
27439;DHT22;14887;51.252;7.470;2023-03-16T06:51:54;1.80;99.90
27439;DHT22;14887;51.252;7.470;2023-03-16T06:54:19;1.90;99.90
27439;DHT22;14887;51.252;7.470;2023-03-16T06:56:45;1.90;1.00
27439;DHT22;14887;51.252;7.470;2023-03-16T06:59:11;2.00;42.60
27439;DHT22;14887;51.252;7.470;2023-03-16T07:01:36;2.00;1.00
27439;DHT22;14887;51.252;7.470;2023-03-16T07:04:02;2.00;1.00
27439;DHT22;14887;51.252;7.470;2023-03-16T07:06:27;2.00;1.00
27439;DHT22;14887;51.252;7.470;2023-03-16T07:08:53;2.00;1.00
27439;DHT22;14887;51.252;7.470;2023-03-16T07:11:19;2.00;1.00
27439;DHT22;14887;51.252;7.470;2023-03-16T07:13:44;2.10;1.00
27439;DHT22;14887;51.252;7.470;2023-03-16T07:16:10;2.20;1.00
27439;DHT22;14887;51.252;7.470;2023-03-16T07:18:35;2.20;1.00
27439;DHT22;14887;51.252;7.470;2023-03-16T07:21:04;2.30;1.00
27439;DHT22;14887;51.252;7.470;2023-03-16T07:23:30;2.50;1.00
27439;DHT22;14887;51.252;7.470;2023-03-16T07:25:56;2.60;1.00
27439;DHT22;14887;51.252;7.470;2023-03-16T07:28:22;2.60;55.60
27439;DHT22;14887;51.252;7.470;2023-03-16T07:30:49;2.70;91.60
27439;DHT22;14887;51.252;7.470;2023-03-16T07:33:14;2.70;1.00
27439;DHT22;14887;51.252;7.470;2023-03-16T07:35:40;2.70;1.00
27439;DHT22;14887;51.252;7.470;2023-03-16T07:38:05;2.80;99.90
27439;DHT22;14887;51.252;7.470;2023-03-16T07:40:31;3.00;99.90
27439;DHT22;14887;51.252;7.470;2023-03-16T07:42:58;3.00;36.50
27439;DHT22;14887;51.252;7.470;2023-03-16T07:45:24;3.30;58.50
27439;DHT22;14887;51.252;7.470;2023-03-16T07:47:49;3.60;99.90
27439;DHT22;14887;51.252;7.470;2023-03-16T07:50:15;3.80;1.00
27439;DHT22;14887;51.252;7.470;2023-03-16T07:52:43;4.10;1.00
27439;DHT22;14887;51.252;7.470;2023-03-16T07:55:11;4.80;99.90
27439;DHT22;14887;51.252;7.470;2023-03-16T07:57:37;5.30;1.00
27439;DHT22;14887;51.252;7.470;2023-03-16T08:00:04;5.30;1.00
27439;DHT22;14887;51.252;7.470;2023-03-16T08:02:31;5.20;1.00
27439;DHT22;14887;51.252;7.470;2023-03-16T08:04:57;5.50;1.00
27439;DHT22;14887;51.252;7.470;2023-03-16T08:07:22;6.00;1.00
27439;DHT22;14887;51.252;7.470;2023-03-16T08:09:48;6.20;99.90
27439;DHT22;14887;51.252;7.470;2023-03-16T08:12:13;6.40;99.90
27439;DHT22;14887;51.252;7.470;2023-03-16T08:14:39;6.30;99.90
27439;DHT22;14887;51.252;7.470;2023-03-16T08:17:06;5.60;99.90
27439;DHT22;14887;51.252;7.470;2023-03-16T08:19:32;5.50;99.90
27439;DHT22;14887;51.252;7.470;2023-03-16T08:21:58;5.40;1.00
27439;DHT22;14887;51.252;7.470;2023-03-16T08:24:26;5.30;99.90
27439;DHT22;14887;51.252;7.470;2023-03-16T08:26:52;5.00;1.00
27439;DHT22;14887;51.252;7.470;2023-03-16T08:29:18;4.90;1.00
27439;DHT22;14887;51.252;7.470;2023-03-16T08:31:44;4.90;1.00
27439;DHT22;14887;51.252;7.470;2023-03-16T08:34:09;4.60;1.00
27439;DHT22;14887;51.252;7.470;2023-03-16T08:36:35;4.30;99.90
27439;DHT22;14887;51.252;7.470;2023-03-16T08:39:02;4.30;1.00
27439;DHT22;14887;51.252;7.470;2023-03-16T08:41:30;4.40;98.60
27439;DHT22;14887;51.252;7.470;2023-03-16T08:43:57;4.40;99.90
27439;DHT22;14887;51.252;7.470;2023-03-16T08:46:23;4.40;99.90
27439;DHT22;14887;51.252;7.470;2023-03-16T08:48:48;4.30;99.90
27439;DHT22;14887;51.252;7.470;2023-03-16T08:51:14;4.20;1.00
27439;DHT22;14887;51.252;7.470;2023-03-16T08:53:40;4.20;1.00
27439;DHT22;14887;51.252;7.470;2023-03-16T08:56:07;4.30;99.90
27439;DHT22;14887;51.252;7.470;2023-03-16T08:58:34;4.30;1.00
27439;DHT22;14887;51.252;7.470;2023-03-16T09:01:01;4.50;1.00
27439;DHT22;14887;51.252;7.470;2023-03-16T09:03:28;4.50;99.90
27439;DHT22;14887;51.252;7.470;2023-03-16T09:05:59;4.60;1.00
27439;DHT22;14887;51.252;7.470;2023-03-16T09:08:25;4.60;1.00
27439;DHT22;14887;51.252;7.470;2023-03-16T09:11:01;4.50;99.90
27439;DHT22;14887;51.252;7.470;2023-03-16T09:13:28;4.30;99.90
27439;DHT22;14887;51.252;7.470;2023-03-16T09:15:55;4.10;99.90
27439;DHT22;14887;51.252;7.470;2023-03-16T09:18:22;4.10;1.00
27439;DHT22;14887;51.252;7.470;2023-03-16T09:20:48;4.10;1.00
27439;DHT22;14887;51.252;7.470;2023-03-16T09:23:14;4.00;1.00
27439;DHT22;14887;51.252;7.470;2023-03-16T09:25:40;4.00;99.90
27439;DHT22;14887;51.252;7.470;2023-03-16T09:28:06;4.10;1.00
27439;DHT22;14887;51.252;7.470;2023-03-16T09:30:33;4.00;1.00
27439;DHT22;14887;51.252;7.470;2023-03-16T09:32:58;4.00;1.00
27439;DHT22;14887;51.252;7.470;2023-03-16T09:35:24;4.00;99.90
27439;DHT22;14887;51.252;7.470;2023-03-16T09:37:50;3.90;99.90
27439;DHT22;14887;51.252;7.470;2023-03-16T09:40:23;3.90;99.90
27439;DHT22;14887;51.252;7.470;2023-03-16T09:45:55;4.20;35.00
27439;DHT22;14887;51.252;7.470;2023-03-16T09:48:24;4.40;1.00
27439;DHT22;14887;51.252;7.470;2023-03-16T09:50:53;4.80;1.00
27439;DHT22;14887;51.252;7.470;2023-03-16T09:53:29;4.70;99.90
27439;DHT22;14887;51.252;7.470;2023-03-16T09:56:03;4.90;99.90
27439;DHT22;14887;51.252;7.470;2023-03-16T09:58:29;5.10;99.90
27439;DHT22;14887;51.252;7.470;2023-03-16T10:06:33;6.90;1.00
27439;DHT22;14887;51.252;7.470;2023-03-16T10:12:00;7.20;99.90
27439;DHT22;14887;51.252;7.470;2023-03-16T10:14:55;7.00;99.90
27439;DHT22;14887;51.252;7.470;2023-03-16T10:17:48;6.80;99.90
27439;DHT22;14887;51.252;7.470;2023-03-16T10:20:21;6.70;99.90
27439;DHT22;14887;51.252;7.470;2023-03-16T10:22:50;6.90;99.90
27439;DHT22;14887;51.252;7.470;2023-03-16T10:27:52;7.10;99.90
27439;DHT22;14887;51.252;7.470;2023-03-16T10:30:20;7.30;99.90
27439;DHT22;14887;51.252;7.470;2023-03-16T10:32:47;7.70;99.90
27439;DHT22;14887;51.252;7.470;2023-03-16T10:35:47;7.80;99.90
27439;DHT22;14887;51.252;7.470;2023-03-16T10:38:27;7.90;99.90
27439;DHT22;14887;51.252;7.470;2023-03-16T10:40:53;8.30;99.90
27439;DHT22;14887;51.252;7.470;2023-03-16T10:43:18;8.20;99.90
27439;DHT22;14887;51.252;7.470;2023-03-16T10:45:45;8.50;99.90
27439;DHT22;14887;51.252;7.470;2023-03-16T10:48:16;8.20;99.90
27439;DHT22;14887;51.252;7.470;2023-03-16T10:50:53;7.90;99.90
27439;DHT22;14887;51.252;7.470;2023-03-16T10:53:22;7.70;99.90
27439;DHT22;14887;51.252;7.470;2023-03-16T10:56:00;7.50;99.90
27439;DHT22;14887;51.252;7.470;2023-03-16T10:58:31;7.40;99.90
27439;DHT22;14887;51.252;7.470;2023-03-16T11:00:58;7.20;99.90
27439;DHT22;14887;51.252;7.470;2023-03-16T11:03:30;7.30;99.90
27439;DHT22;14887;51.252;7.470;2023-03-16T11:06:05;7.10;99.90
27439;DHT22;14887;51.252;7.470;2023-03-16T11:08:34;7.10;99.90
27439;DHT22;14887;51.252;7.470;2023-03-16T11:11:15;7.10;99.90
27439;DHT22;14887;51.252;7.470;2023-03-16T11:13:47;7.00;99.90
27439;DHT22;14887;51.252;7.470;2023-03-16T11:16:33;7.10;99.90
27439;DHT22;14887;51.252;7.470;2023-03-16T11:19:24;7.00;99.90
27439;DHT22;14887;51.252;7.470;2023-03-16T11:22:14;7.10;99.90
27439;DHT22;14887;51.252;7.470;2023-03-16T11:24:49;7.00;99.90
27439;DHT22;14887;51.252;7.470;2023-03-16T11:32:39;7.10;99.90
27439;DHT22;14887;51.252;7.470;2023-03-16T11:35:13;7.40;99.90
27439;DHT22;14887;51.252;7.470;2023-03-16T11:37:50;7.70;99.90
27439;DHT22;14887;51.252;7.470;2023-03-16T11:40:56;7.60;99.90
27439;DHT22;14887;51.252;7.470;2023-03-16T11:43:45;7.60;99.90
27439;DHT22;14887;51.252;7.470;2023-03-16T11:48:59;7.50;99.90
27439;DHT22;14887;51.252;7.470;2023-03-16T11:51:52;7.70;99.90
27439;DHT22;14887;51.252;7.470;2023-03-16T12:03:16;9.40;4.50
27439;DHT22;14887;51.252;7.470;2023-03-16T12:06:14;9.20;1.00
27439;DHT22;14887;51.252;7.470;2023-03-16T12:08:59;9.80;1.00
27439;DHT22;14887;51.252;7.470;2023-03-16T12:11:32;10.30;1.00
27439;DHT22;14887;51.252;7.470;2023-03-16T12:14:26;10.70;1.00
27439;DHT22;14887;51.252;7.470;2023-03-16T12:17:15;11.20;1.00
27439;DHT22;14887;51.252;7.470;2023-03-16T12:22:22;12.10;1.00
27439;DHT22;14887;51.252;7.470;2023-03-16T12:24:52;12.30;1.00
27439;DHT22;14887;51.252;7.470;2023-03-16T12:27:32;12.00;1.00
27439;DHT22;14887;51.252;7.470;2023-03-16T12:33:14;12.10;1.00
27439;DHT22;14887;51.252;7.470;2023-03-16T12:36:02;12.50;1.00
27439;DHT22;14887;51.252;7.470;2023-03-16T12:38:44;12.40;1.00
27439;DHT22;14887;51.252;7.470;2023-03-16T12:44:01;12.90;1.00
27439;DHT22;14887;51.252;7.470;2023-03-16T12:49:22;12.60;1.00
27439;DHT22;14887;51.252;7.470;2023-03-16T12:52:00;12.40;1.00
27439;DHT22;14887;51.252;7.470;2023-03-16T12:54:26;11.60;1.00
27439;DHT22;14887;51.252;7.470;2023-03-16T12:57:03;11.10;1.00
27439;DHT22;14887;51.252;7.470;2023-03-16T12:59:42;10.70;1.00
27439;DHT22;14887;51.252;7.470;2023-03-16T13:02:19;10.60;1.00
27439;DHT22;14887;51.252;7.470;2023-03-16T13:04:48;10.10;1.00
27439;DHT22;14887;51.252;7.470;2023-03-16T13:07:22;10.10;1.00
27439;DHT22;14887;51.252;7.470;2023-03-16T13:10:06;10.00;1.00
27439;DHT22;14887;51.252;7.470;2023-03-16T13:12:35;9.90;1.00
27439;DHT22;14887;51.252;7.470;2023-03-16T13:17:49;10.10;1.00
27439;DHT22;14887;51.252;7.470;2023-03-16T13:20:32;10.20;1.00
27439;DHT22;14887;51.252;7.470;2023-03-16T13:25:44;10.00;1.00
27439;DHT22;14887;51.252;7.470;2023-03-16T13:28:27;9.90;1.00
27439;DHT22;14887;51.252;7.470;2023-03-16T13:30:53;9.80;1.00
27439;DHT22;14887;51.252;7.470;2023-03-16T13:33:21;10.00;1.00
27439;DHT22;14887;51.252;7.470;2023-03-16T13:35:48;10.10;1.00
27439;DHT22;14887;51.252;7.470;2023-03-16T13:38:17;10.40;1.00
27439;DHT22;14887;51.252;7.470;2023-03-16T13:40:50;10.90;1.00
27439;DHT22;14887;51.252;7.470;2023-03-16T13:43:20;10.90;1.00
27439;DHT22;14887;51.252;7.470;2023-03-16T13:45:47;11.00;1.00
27439;DHT22;14887;51.252;7.470;2023-03-16T13:48:14;11.50;1.00
27439;DHT22;14887;51.252;7.470;2023-03-16T13:50:41;12.00;1.00
27439;DHT22;14887;51.252;7.470;2023-03-16T13:53:17;12.30;1.00
27439;DHT22;14887;51.252;7.470;2023-03-16T13:55:46;12.90;1.00
27439;DHT22;14887;51.252;7.470;2023-03-16T13:58:32;13.80;1.00
27439;DHT22;14887;51.252;7.470;2023-03-16T14:01:03;14.20;1.00
27439;DHT22;14887;51.252;7.470;2023-03-16T14:03:38;14.80;1.00
27439;DHT22;14887;51.252;7.470;2023-03-16T14:06:07;15.00;1.00
27439;DHT22;14887;51.252;7.470;2023-03-16T14:08:46;15.20;1.00
27439;DHT22;14887;51.252;7.470;2023-03-16T14:11:14;15.10;1.00
27439;DHT22;14887;51.252;7.470;2023-03-16T14:13:39;14.40;99.90
27439;DHT22;14887;51.252;7.470;2023-03-16T14:16:16;14.20;99.90
27439;DHT22;14887;51.252;7.470;2023-03-16T14:18:55;13.70;99.90
27439;DHT22;14887;51.252;7.470;2023-03-16T14:21:27;14.40;1.00
27439;DHT22;14887;51.252;7.470;2023-03-16T14:23:57;14.80;99.90
27439;DHT22;14887;51.252;7.470;2023-03-16T14:26:23;14.80;99.90
27439;DHT22;14887;51.252;7.470;2023-03-16T14:29:03;15.60;99.90
27439;DHT22;14887;51.252;7.470;2023-03-16T14:31:36;16.40;99.90
27439;DHT22;14887;51.252;7.470;2023-03-16T14:34:05;16.90;99.90
27439;DHT22;14887;51.252;7.470;2023-03-16T14:36:35;15.90;99.90
27439;DHT22;14887;51.252;7.470;2023-03-16T14:39:18;15.60;99.90
27439;DHT22;14887;51.252;7.470;2023-03-16T14:41:47;16.10;99.90
27439;DHT22;14887;51.252;7.470;2023-03-16T14:44:28;16.10;99.90
27439;DHT22;14887;51.252;7.470;2023-03-16T14:46:56;15.70;99.90
27439;DHT22;14887;51.252;7.470;2023-03-16T14:51:52;15.40;99.90
27439;DHT22;14887;51.252;7.470;2023-03-16T14:54:20;15.50;99.90
27439;DHT22;14887;51.252;7.470;2023-03-16T14:56:51;15.10;99.90
27439;DHT22;14887;51.252;7.470;2023-03-16T14:59:18;15.50;99.90
27439;DHT22;14887;51.252;7.470;2023-03-16T15:01:44;15.20;99.90
27439;DHT22;14887;51.252;7.470;2023-03-16T15:04:15;14.20;99.90
27439;DHT22;14887;51.252;7.470;2023-03-16T15:06:43;14.20;99.90
27439;DHT22;14887;51.252;7.470;2023-03-16T15:09:26;14.30;99.90
27439;DHT22;14887;51.252;7.470;2023-03-16T15:11:53;14.30;99.90
27439;DHT22;14887;51.252;7.470;2023-03-16T15:14:20;14.60;99.90
27439;DHT22;14887;51.252;7.470;2023-03-16T15:17:05;15.10;99.90
27439;DHT22;14887;51.252;7.470;2023-03-16T15:19:32;16.10;99.90
27439;DHT22;14887;51.252;7.470;2023-03-16T15:21:59;17.10;99.90
27439;DHT22;14887;51.252;7.470;2023-03-16T15:24:26;18.00;99.90
27439;DHT22;14887;51.252;7.470;2023-03-16T15:26:53;17.10;99.90
27439;DHT22;14887;51.252;7.470;2023-03-16T15:29:20;16.50;99.90
27439;DHT22;14887;51.252;7.470;2023-03-16T15:31:46;15.10;99.90
27439;DHT22;14887;51.252;7.470;2023-03-16T15:34:11;14.60;99.90
27439;DHT22;14887;51.252;7.470;2023-03-16T15:36:37;14.30;99.90
27439;DHT22;14887;51.252;7.470;2023-03-16T15:39:03;13.70;99.90
27439;DHT22;14887;51.252;7.470;2023-03-16T15:41:28;13.90;99.90
27439;DHT22;14887;51.252;7.470;2023-03-16T15:43:54;14.00;99.90
27439;DHT22;14887;51.252;7.470;2023-03-16T15:46:25;14.50;99.90
27439;DHT22;14887;51.252;7.470;2023-03-16T15:48:51;14.50;99.90
27439;DHT22;14887;51.252;7.470;2023-03-16T15:51:24;14.10;99.90
27439;DHT22;14887;51.252;7.470;2023-03-16T15:54:00;13.70;99.90
27439;DHT22;14887;51.252;7.470;2023-03-16T15:56:29;13.00;99.90
27439;DHT22;14887;51.252;7.470;2023-03-16T15:59:01;12.60;99.90
27439;DHT22;14887;51.252;7.470;2023-03-16T16:01:35;12.30;99.90
27439;DHT22;14887;51.252;7.470;2023-03-16T16:04:08;12.30;99.90
27439;DHT22;14887;51.252;7.470;2023-03-16T16:06:36;12.00;99.90
27439;DHT22;14887;51.252;7.470;2023-03-16T16:09:02;11.70;99.90
27439;DHT22;14887;51.252;7.470;2023-03-16T16:11:27;11.20;99.90
27439;DHT22;14887;51.252;7.470;2023-03-16T16:13:54;10.50;99.90
27439;DHT22;14887;51.252;7.470;2023-03-16T16:16:21;10.20;1.00
27439;DHT22;14887;51.252;7.470;2023-03-16T16:18:47;9.80;1.00
27439;DHT22;14887;51.252;7.470;2023-03-16T16:21:18;9.60;1.00
27439;DHT22;14887;51.252;7.470;2023-03-16T16:23:45;9.60;1.00
27439;DHT22;14887;51.252;7.470;2023-03-16T16:26:37;9.40;1.00
27439;DHT22;14887;51.252;7.470;2023-03-16T16:29:16;9.40;1.00
27439;DHT22;14887;51.252;7.470;2023-03-16T16:31:42;9.40;1.00
27439;DHT22;14887;51.252;7.470;2023-03-16T16:34:16;9.40;1.00
27439;DHT22;14887;51.252;7.470;2023-03-16T16:36:43;9.00;1.00
27439;DHT22;14887;51.252;7.470;2023-03-16T16:39:08;8.70;1.00
27439;DHT22;14887;51.252;7.470;2023-03-16T16:41:35;8.60;1.00
27439;DHT22;14887;51.252;7.470;2023-03-16T16:44:02;8.40;1.00
27439;DHT22;14887;51.252;7.470;2023-03-16T16:46:39;8.20;1.00
27439;DHT22;14887;51.252;7.470;2023-03-16T16:49:23;8.20;1.00
27439;DHT22;14887;51.252;7.470;2023-03-16T16:51:49;8.10;1.00
27439;DHT22;14887;51.252;7.470;2023-03-16T16:54:21;7.90;1.00
27439;DHT22;14887;51.252;7.470;2023-03-16T16:56:49;7.90;1.00
27439;DHT22;14887;51.252;7.470;2023-03-16T16:59:22;7.90;32.00